Time;durP1;ratioP1;P1;durP2;ratioP2;P2;SDS_P1;SDS_P2;PMS_P1;PMS_P2;Temp;Humidity;BMP_temperature;BMP_pressure;BME280_temperature;BME280_humidity;BME280_pressure;Samples;Min_cycle;Max_cycle;Signal;HPM_P1;HPM_P2
2022/04/15 00:01:27;;;;;;;35.63;27.92;;;;;;;8.47;84.13;102390.63;5012259;28;20390;-74
2022/04/15 00:03:53;;;;;;;37.38;28.75;;;;;;;8.49;84.00;102404.53;5011491;28;20021;-74
2022/04/15 00:06:20;;;;;;;36.72;27.45;;;;;;;8.47;84.04;102403.75;5012870;28;20487;-74
2022/04/15 00:08:46;;;;;;;37.80;29.10;;;;;;;8.43;84.24;102399.53;5001741;28;20065;-74
2022/04/15 00:11:13;;;;;;;39.72;29.27;;;;;;;8.41;84.63;102406.59;5011757;28;20049;-78
2022/04/15 00:13:41;;;;;;;36.80;29.27;;;;;;;8.30;84.54;102387.78;4995164;28;20056;-74
2022/04/15 00:16:09;;;;;;;37.45;29.02;;;;;;;8.34;84.59;102392.84;5012933;28;20053;-74
2022/04/15 00:18:35;;;;;;;37.22;28.48;;;;;;;8.28;84.53;102398.31;4993483;28;20073;-74
2022/04/15 00:21:01;;;;;;;38.30;27.83;;;;;;;8.27;84.51;102399.22;4995131;28;20045;-74
2022/04/15 00:23:27;;;;;;;32.70;27.30;;;;;;;8.22;84.61;102401.19;4994612;28;20513;-74
2022/04/15 00:25:54;;;;;;;37.10;26.90;;;;;;;8.17;84.42;102403.13;5011482;28;20034;-74
2022/04/15 00:28:21;;;;;;;34.88;26.27;;;;;;;8.14;84.50;102409.34;4994506;28;20341;-74
2022/04/15 00:30:46;;;;;;;33.83;26.67;;;;;;;8.10;84.93;102410.38;5011194;28;20079;-74
2022/04/15 00:33:12;;;;;;;34.10;26.85;;;;;;;8.07;84.72;102404.41;5010587;28;20034;-74
2022/04/15 00:35:41;;;;;;;32.92;26.05;;;;;;;8.04;84.81;102408.00;5012080;28;20069;-74
2022/04/15 00:38:07;;;;;;;36.10;26.52;;;;;;;8.03;84.78;102416.78;5010964;28;20028;-74
2022/04/15 00:40:36;;;;;;;35.88;27.40;;;;;;;8.00;84.88;102416.88;5010873;28;20086;-75
2022/04/15 00:43:02;;;;;;;34.42;26.83;;;;;;;7.94;84.77;102422.34;5011797;28;20030;-74
2022/04/15 00:45:28;;;;;;;31.95;26.17;;;;;;;7.88;85.44;102419.97;5011267;28;20037;-74
2022/04/15 00:47:56;;;;;;;35.10;27.23;;;;;;;7.86;85.45;102419.16;5010310;28;20045;-75
2022/04/15 00:50:26;;;;;;;38.40;26.52;;;;;;;7.85;85.52;102427.94;5010899;28;20557;-75
2022/04/15 00:52:53;;;;;;;35.60;27.70;;;;;;;7.83;85.38;102425.38;5010624;28;20038;-75
2022/04/15 00:55:21;;;;;;;32.05;25.90;;;;;;;7.77;85.20;102425.63;5011102;28;20025;-75
2022/04/15 00:58:06;;;;;;;34.58;25.70;;;;;;;7.73;84.83;102417.94;5011362;28;20045;-75
2022/04/15 01:00:34;;;;;;;35.90;26.60;;;;;;;7.73;85.43;102433.66;5011905;28;20030;-76
2022/04/15 01:03:02;;;;;;;32.33;24.40;;;;;;;7.71;85.17;102427.59;5012161;28;20812;-74
2022/04/15 01:05:27;;;;;;;31.15;24.25;;;;;;;7.57;85.39;102416.75;4994061;28;20037;-74
2022/04/15 01:07:55;;;;;;;29.45;23.15;;;;;;;7.54;85.80;102415.09;5010730;28;20202;-74
2022/04/15 01:10:26;;;;;;;34.33;24.95;;;;;;;7.54;86.09;102417.72;5011980;28;20049;-74
2022/04/15 01:12:54;;;;;;;30.48;23.60;;;;;;;7.53;85.37;102424.72;4997100;28;20030;-74
2022/04/15 01:15:26;;;;;;;31.42;23.25;;;;;;;7.50;85.67;102422.22;4991828;28;20010;-74
2022/04/15 01:17:52;;;;;;;28.73;23.33;;;;;;;7.50;85.64;102432.69;5011280;28;20030;-75
2022/04/15 01:20:18;;;;;;;32.88;24.40;;;;;;;7.42;85.77;102428.66;5011747;28;20053;-75
2022/04/15 01:22:58;;;;;;;32.42;23.67;;;;;;;7.43;86.07;102441.69;5009727;28;20042;-75
2022/04/15 01:25:25;;;;;;;31.25;24.38;;;;;;;7.38;85.91;102433.13;5011449;28;20026;-74
2022/04/15 01:27:50;;;;;;;32.83;24.83;;;;;;;7.35;86.05;102442.88;5008825;28;20030;-74
2022/04/15 01:30:21;;;;;;;34.38;25.20;;;;;;;7.25;86.49;102426.63;5010115;28;20037;-74
2022/04/15 01:32:48;;;;;;;32.92;25.17;;;;;;;7.29;86.49;102443.09;5010048;28;20025;-74
2022/04/15 01:35:14;;;;;;;30.58;23.95;;;;;;;7.17;86.47;102429.50;5009529;28;20026;-74
2022/04/15 01:37:40;;;;;;;29.88;23.25;;;;;;;7.14;86.41;102429.59;5010529;28;20025;-75
2022/04/15 01:40:08;;;;;;;30.90;24.23;;;;;;;7.19;86.58;102446.00;5009781;28;20079;-74
2022/04/15 01:42:35;;;;;;;28.02;21.85;;;;;;;7.15;86.12;102438.31;4991269;28;20026;-75
2022/04/15 01:45:05;;;;;;;30.17;23.17;;;;;;;7.12;86.41;102436.66;4992142;28;20026;-75
2022/04/15 01:47:31;;;;;;;30.40;23.27;;;;;;;7.11;86.35;102436.69;5010449;28;20026;-75
2022/04/15 01:49:56;;;;;;;28.95;23.30;;;;;;;7.10;86.77;102442.84;5009276;28;20501;-74
2022/04/15 01:52:21;;;;;;;27.95;22.60;;;;;;;7.08;86.42;102450.75;5008802;28;20109;-74
2022/04/15 01:54:47;;;;;;;29.88;23.67;;;;;;;7.05;86.77;102455.22;4991794;28;20490;-75
2022/04/15 01:57:13;;;;;;;31.67;23.95;;;;;;;7.01;86.69;102451.88;4990886;28;20026;-75
2022/04/15 01:59:41;;;;;;;31.15;23.75;;;;;;;6.97;86.83;102452.03;5009948;28;20042;-75
2022/04/15 02:02:09;;;;;;;29.10;22.48;;;;;;;6.97;86.80;102454.63;5007032;28;20513;-75
2022/04/15 02:04:35;;;;;;;30.33;23.60;;;;;;;6.91;86.63;102450.47;5006748;28;20091;-74
2022/04/15 02:07:00;;;;;;;29.75;23.67;;;;;;;6.87;86.62;102454.94;5010375;28;20493;-75
2022/04/15 02:09:29;;;;;;;30.58;23.25;;;;;;;6.87;86.79;102456.69;5009810;28;20040;-75
2022/04/15 02:11:54;;;;;;;30.38;23.02;;;;;;;6.81;87.03;102455.16;5007837;28;20079;-75
2022/04/15 02:14:21;;;;;;;28.75;23.15;;;;;;;6.80;87.09;102453.41;5007867;28;20034;-74
2022/04/15 02:16:50;;;;;;;29.23;22.42;;;;;;;6.77;86.71;102461.34;4991490;28;20021;-74
2022/04/15 02:19:15;;;;;;;26.30;21.05;;;;;;;6.74;86.91;102461.44;5008383;28;20026;-75
2022/04/15 02:21:40;;;;;;;27.02;21.13;;;;;;;6.69;87.02;102467.75;5010039;28;20030;-75
2022/04/15 02:24:06;;;;;;;23.77;19.55;;;;;;;6.69;87.10;102473.81;5007523;28;20026;-74
2022/04/15 02:26:32;;;;;;;23.70;18.95;;;;;;;6.64;87.15;102465.28;5004546;28;20030;-75
2022/04/15 02:28:58;;;;;;;23.25;18.05;;;;;;;6.62;86.73;102472.31;4988905;28;20113;-74
2022/04/15 02:31:24;;;;;;;23.60;18.50;;;;;;;6.58;86.84;102484.63;5006487;28;20525;-75
2022/04/15 02:33:50;;;;;;;24.10;18.05;;;;;;;6.55;86.66;102476.88;5001184;28;20026;-75
2022/04/15 02:36:16;;;;;;;23.42;18.02;;;;;;;6.53;86.87;102477.84;5004194;28;20386;-74
2022/04/15 02:38:42;;;;;;;25.20;19.92;;;;;;;6.52;86.78;102481.34;4990930;28;20045;-74
2022/04/15 02:41:07;;;;;;;26.42;19.63;;;;;;;6.45;87.24;102480.69;5008632;28;20032;-75
2022/04/15 02:43:36;;;;;;;24.73;19.52;;;;;;;6.46;86.81;102482.41;5009297;28;20045;-75
2022/04/15 02:46:10;;;;;;;28.33;20.95;;;;;;;6.42;87.44;102485.16;5007175;28;20018;-75
2022/04/15 02:48:35;;;;;;;26.23;21.30;;;;;;;6.40;87.58;102481.72;5009263;28;20056;-74
2022/04/15 02:51:02;;;;;;;26.77;20.80;;;;;;;6.38;87.99;102480.91;5009173;28;20112;-74
2022/04/15 02:53:27;;;;;;;30.25;21.80;;;;;;;6.35;88.12;102481.00;5008322;28;20025;-75
2022/04/15 02:55:53;;;;;;;26.15;20.58;;;;;;;6.35;88.50;102483.59;5008599;28;20075;-75
2022/04/15 02:58:20;;;;;;;28.38;20.67;;;;;;;6.31;88.18;102476.75;5007599;28;20124;-74
2022/04/15 03:00:46;;;;;;;24.50;18.80;;;;;;;6.28;87.83;102483.78;5005679;28;20545;-75
2022/04/15 03:03:12;;;;;;;23.60;18.92;;;;;;;6.21;88.32;102478.81;5004888;28;20440;-75
2022/04/15 03:05:42;;;;;;;25.20;19.90;;;;;;;6.24;88.07;102476.09;5005365;28;20052;-75
2022/04/15 03:08:08;;;;;;;25.60;19.73;;;;;;;6.22;88.34;102483.97;5006284;28;20060;-75
2022/04/15 03:10:35;;;;;;;25.85;19.52;;;;;;;6.17;87.91;102477.19;4991963;28;20025;-75
2022/04/15 03:13:01;;;;;;;25.60;19.42;;;;;;;6.16;87.88;102478.94;5009667;28;20105;-75
2022/04/15 03:15:27;;;;;;;28.15;20.38;;;;;;;6.13;87.63;102479.03;5008796;28;20105;-75
2022/04/15 03:17:53;;;;;;;32.00;22.00;;;;;;;6.12;87.97;102477.31;4991383;28;20033;-75
2022/04/15 03:20:19;;;;;;;32.53;23.85;;;;;;;6.08;88.19;102480.94;5008147;28;20045;-74
2022/04/15 03:22:45;;;;;;;28.27;21.48;;;;;;;6.07;88.42;102489.66;4991691;28;20029;-74
2022/04/15 03:25:13;;;;;;;32.47;25.23;;;;;;;6.04;88.25;102486.28;5008757;28;20110;-75
2022/04/15 03:27:38;;;;;;;33.55;25.52;;;;;;;6.01;88.29;102484.63;5009618;28;20070;-75
2022/04/15 03:30:07;;;;;;;31.83;25.83;;;;;;;5.90;88.23;102470.97;4994447;28;20478;-74
2022/04/15 03:32:44;;;;;;;34.20;25.25;;;;;;;5.93;87.92;102482.19;5003686;28;20429;-75
2022/04/15 03:35:09;;;;;;;31.48;22.55;;;;;;;5.89;87.57;102479.69;5011485;28;20092;-75
2022/04/15 03:37:34;;;;;;;30.88;22.52;;;;;;;5.89;88.11;102485.81;5012833;28;20022;-75
2022/04/15 03:39:59;;;;;;;30.27;22.50;;;;;;;5.80;88.09;102475.59;5012365;28;20500;-75
2022/04/15 03:42:25;;;;;;;29.20;22.13;;;;;;;5.88;88.29;102488.44;5011668;28;20076;-75
2022/04/15 03:44:50;;;;;;;28.80;21.80;;;;;;;5.87;88.03;102491.94;5010685;28;20028;-75
2022/04/15 03:47:16;;;;;;;29.92;21.85;;;;;;;5.77;88.29;102480.03;5012098;28;20382;-74
2022/04/15 03:49:41;;;;;;;30.02;22.00;;;;;;;5.72;88.41;102484.53;5011481;28;20505;-74
2022/04/15 03:52:07;;;;;;;29.27;22.92;;;;;;;5.74;88.06;102486.22;5012461;28;20033;-75
2022/04/15 03:54:32;;;;;;;29.73;22.65;;;;;;;5.75;88.50;102495.75;5011254;28;20096;-75
2022/04/15 03:56:58;;;;;;;31.90;22.27;;;;;;;5.77;88.87;102500.94;5010685;28;20440;-74
2022/04/15 03:59:23;;;;;;;33.72;22.85;;;;;;;5.69;88.73;102495.94;5011684;28;20049;-74
2022/04/15 04:01:49;;;;;;;37.22;22.92;;;;;;;5.76;89.16;102510.53;5011579;28;20034;-75
2022/04/15 04:04:14;;;;;;;36.10;23.10;;;;;;;5.74;89.56;102514.06;5011511;28;20034;-75
2022/04/15 04:06:39;;;;;;;31.40;23.00;;;;;;;5.77;89.76;102516.59;5011059;28;20502;-74
2022/04/15 04:09:05;;;;;;;36.60;24.25;;;;;;;5.81;90.19;102513.88;5012308;28;20548;-74
2022/04/15 04:11:30;;;;;;;32.60;23.70;;;;;;;5.84;90.89;102515.53;5011815;28;20064;-74
2022/04/15 04:13:57;;;;;;;39.90;24.75;;;;;;;5.83;91.01;102513.81;4991641;28;20121;-74
2022/04/15 04:16:22;;;;;;;46.40;26.90;;;;;;;5.86;92.05;102514.59;5008176;28;20026;-74
2022/04/15 04:18:48;;;;;;;48.20;27.80;;;;;;;5.90;91.88;102516.25;5010481;28;20028;-74
2022/04/15 04:21:13;;;;;;;53.55;31.83;;;;;;;5.93;93.40;102513.53;5012141;28;20083;-74
2022/04/15 04:23:42;;;;;;;55.38;33.13;;;;;;;6.00;94.52;102515.97;5011991;28;20029;-75
2022/04/15 04:26:07;;;;;;;51.20;33.00;;;;;;;6.13;95.28;102525.22;5012200;28;20044;-75
2022/04/15 04:28:34;;;;;;;53.28;35.05;;;;;;;6.18;96.68;102526.78;5010714;28;20022;-75
2022/04/15 04:31:00;;;;;;;57.17;34.35;;;;;;;6.25;96.77;102527.47;5010626;28;20036;-74
2022/04/15 04:33:25;;;;;;;61.30;36.22;;;;;;;6.33;97.57;102532.47;5010507;28;20026;-74
2022/04/15 04:35:51;;;;;;;68.97;36.83;;;;;;;6.28;98.25;102511.69;4997805;28;20018;-75
2022/04/15 04:38:17;;;;;;;54.38;34.70;;;;;;;6.42;98.75;102533.06;4991975;28;20030;-75
2022/04/15 04:40:43;;;;;;;47.45;33.63;;;;;;;6.45;98.52;102534.75;5010380;28;20235;-74
2022/04/15 04:43:10;;;;;;;51.13;32.75;;;;;;;6.46;99.00;102531.22;5011258;28;20039;-75
2022/04/15 04:45:36;;;;;;;44.92;31.88;;;;;;;6.49;98.45;102545.06;5010401;28;20037;-74
2022/04/15 04:48:03;;;;;;;42.67;30.75;;;;;;;6.53;99.09;102545.81;5011408;28;20024;-74
2022/04/15 04:50:29;;;;;;;36.17;29.38;;;;;;;6.52;99.04;102542.34;4990030;28;20029;-75
2022/04/15 04:52:55;;;;;;;37.92;29.67;;;;;;;6.57;98.90;102550.91;5002910;28;20109;-75
2022/04/15 04:55:20;;;;;;;39.78;30.13;;;;;;;6.60;99.47;102547.34;5008439;28;20097;-75
2022/04/15 04:57:46;;;;;;;36.95;29.05;;;;;;;6.64;98.98;102559.44;5001633;28;20073;-74
2022/04/15 05:00:14;;;;;;;36.60;28.77;;;;;;;6.61;99.22;102554.28;5005673;28;20050;-75
2022/04/15 05:02:50;;;;;;;40.97;29.67;;;;;;;6.66;99.56;102560.22;5009568;28;20033;-75
2022/04/15 05:05:18;;;;;;;40.58;30.38;;;;;;;6.69;99.59;102568.00;4993819;28;20092;-75
2022/04/15 05:07:53;;;;;;;37.67;29.88;;;;;;;6.73;99.84;102569.59;5011089;28;20030;-75
2022/04/15 05:10:18;;;;;;;38.90;27.50;;;;;;;6.74;99.42;102571.31;4997929;28;20017;-75
2022/04/15 05:12:45;;;;;;;32.75;24.50;;;;;;;6.64;99.45;102559.44;4979783;28;20375;-75
2022/04/15 05:15:11;;;;;;;29.10;23.52;;;;;;;6.72;98.84;102567.88;5003183;28;20018;-75
2022/04/15 05:17:38;;;;;;;29.52;24.38;;;;;;;6.73;99.59;102580.06;5002191;28;20022;-75
2022/04/15 05:20:07;;;;;;;37.50;24.48;;;;;;;6.74;99.65;102581.78;5010704;28;20049;-75
2022/04/15 05:22:45;;;;;;;31.33;24.88;;;;;;;6.79;99.69;102585.09;5009057;28;20030;-75
2022/04/15 05:25:10;;;;;;;34.30;23.70;;;;;;;6.77;99.08;102591.28;5010310;28;20037;-75
2022/04/15 05:27:36;;;;;;;33.58;24.15;;;;;;;6.76;99.68;102587.81;5010960;28;20489;-75
2022/04/15 05:30:02;;;;;;;31.38;24.48;;;;;;;6.75;99.42;102583.50;5010156;28;20508;-75
2022/04/15 05:32:28;;;;;;;33.47;24.85;;;;;;;6.82;99.70;102592.91;4993517;28;20124;-75
2022/04/15 05:34:53;;;;;;;33.38;24.92;;;;;;;6.87;99.68;102603.22;5007636;28;20021;-75
2022/04/15 05:37:19;;;;;;;33.90;25.52;;;;;;;6.90;99.60;102603.97;5010241;28;20034;-75
2022/04/15 05:39:46;;;;;;;31.75;25.38;;;;;;;6.94;99.59;102614.34;5010430;28;20041;-75
2022/04/15 05:42:12;;;;;;;32.38;24.77;;;;;;;6.97;99.32;102614.25;5009574;28;20024;-75
2022/04/15 05:44:42;;;;;;;31.83;24.63;;;;;;;6.91;99.46;102608.31;5008527;28;20401;-75
2022/04/15 05:47:08;;;;;;;33.30;25.30;;;;;;;7.00;99.84;102624.63;4992626;28;20528;-75
2022/04/15 05:49:37;;;;;;;36.10;25.00;;;;;;;6.98;99.75;102610.72;5008648;28;20100;-75
2022/04/15 05:52:11;;;;;;;35.92;26.17;;;;;;;7.04;99.54;102627.09;5006663;28;20717;-75
2022/04/15 05:54:36;;;;;;;34.80;25.20;;;;;;;7.02;99.70;102614.97;5009401;28;20029;-74
2022/04/15 05:57:06;;;;;;;32.88;24.65;;;;;;;7.12;100.00;102634.72;4988795;28;20634;-75
2022/04/15 05:59:34;;;;;;;34.88;25.38;;;;;;;7.09;99.79;102630.44;5005440;28;20091;-75
2022/04/15 06:02:02;;;;;;;34.70;25.23;;;;;;;7.11;99.48;102638.22;5005242;28;20025;-75
2022/04/15 06:04:28;;;;;;;33.15;25.23;;;;;;;7.12;99.69;102642.56;5009878;28;20026;-74
2022/04/15 06:06:53;;;;;;;36.47;26.55;;;;;;;7.16;99.63;102642.41;4992167;28;20080;-75
2022/04/15 06:09:32;;;;;;;33.22;25.45;;;;;;;7.22;99.49;102646.63;5009881;28;20026;-74
2022/04/15 06:11:57;;;;;;;37.78;26.25;;;;;;;7.18;99.11;102651.06;4996179;28;20561;-74
2022/04/15 06:14:23;;;;;;;39.10;24.65;;;;;;;7.23;99.35;102653.59;5009997;28;20030;-75
2022/04/15 06:16:51;;;;;;;37.35;25.60;;;;;;;7.29;99.49;102660.38;5009576;28;20030;-75
2022/04/15 06:19:19;;;;;;;36.75;26.00;;;;;;;7.32;99.88;102658.53;5010053;28;20364;-75
2022/04/15 06:21:47;;;;;;;36.35;25.35;;;;;;;7.34;99.69;102663.72;5010217;28;20068;-75
2022/04/15 06:24:13;;;;;;;33.10;24.63;;;;;;;7.33;99.25;102655.00;5009353;28;20473;-74
2022/04/15 06:26:38;;;;;;;33.83;24.52;;;;;;;7.37;99.19;102664.47;5010453;28;20037;-74
2022/04/15 06:29:14;;;;;;;36.80;24.85;;;;;;;7.40;98.60;102669.59;5010336;28;20022;-74
2022/04/15 06:31:40;;;;;;;34.60;24.77;;;;;;;7.39;98.86;102659.19;5009255;28;20026;-74
2022/04/15 06:34:05;;;;;;;33.95;23.52;;;;;;;7.45;99.08;102675.56;5005228;28;20022;-73
2022/04/15 06:36:31;;;;;;;35.35;25.00;;;;;;;7.47;99.00;102670.28;5008686;28;20025;-74
2022/04/15 06:38:56;;;;;;;34.85;25.70;;;;;;;7.46;99.09;102682.50;5008991;28;20038;-74
2022/04/15 06:41:21;;;;;;;37.45;26.60;;;;;;;7.50;99.17;102686.75;5001393;28;20037;-74
2022/04/15 06:43:48;;;;;;;36.42;25.60;;;;;;;7.48;99.18;102675.47;4989440;28;20068;-74
2022/04/15 06:46:14;;;;;;;36.53;25.50;;;;;;;7.53;98.85;102688.41;5014763;28;20051;-74
2022/04/15 06:48:42;;;;;;;38.28;26.00;;;;;;;7.53;98.77;102689.25;5009311;28;20022;-74
2022/04/15 06:51:08;;;;;;;36.75;25.65;;;;;;;7.57;98.82;102692.63;4979433;28;20034;-74
2022/04/15 06:53:34;;;;;;;34.28;24.45;;;;;;;7.59;98.97;102697.81;5009198;28;20033;-73
2022/04/15 06:56:00;;;;;;;30.80;22.85;;;;;;;7.60;98.95;102694.28;5009235;28;20048;-74
2022/04/15 06:58:26;;;;;;;32.00;23.30;;;;;;;7.60;98.47;102694.28;5007349;28;20058;-74
2022/04/15 07:00:52;;;;;;;32.75;23.27;;;;;;;7.60;98.65;102692.53;5009187;28;20030;-74
2022/04/15 07:03:19;;;;;;;28.45;22.17;;;;;;;7.63;98.32;102696.84;5009033;28;20030;-74
2022/04/15 07:05:46;;;;;;;37.08;24.65;;;;;;;7.70;98.51;102700.97;5008076;28;20521;-74
2022/04/15 07:08:15;;;;;;;39.13;25.52;;;;;;;7.69;98.94;102691.41;4991017;28;20030;-74
2022/04/15 07:10:41;;;;;;;33.97;24.25;;;;;;;7.63;98.44;102678.50;4993158;28;20030;-74
2022/04/15 07:13:06;;;;;;;33.70;24.13;;;;;;;7.69;98.47;102689.66;5008472;28;20022;-74
2022/04/15 07:15:34;;;;;;;38.13;25.05;;;;;;;7.73;98.22;102698.25;4992341;28;20060;-74
2022/04/15 07:18:00;;;;;;;34.67;24.65;;;;;;;7.78;98.51;102705.06;4995682;28;20030;-74
2022/04/15 07:20:26;;;;;;;36.72;25.40;;;;;;;7.81;98.23;102706.72;4996660;28;20022;-74
2022/04/15 07:22:58;;;;;;;31.50;23.67;;;;;;;7.83;98.38;102711.00;4991883;28;20033;-75
2022/04/15 07:25:25;;;;;;;31.15;22.17;;;;;;;7.87;98.29;102709.13;4993833;28;20030;-74
2022/04/15 07:27:53;;;;;;;31.48;22.48;;;;;;;7.89;97.76;102717.81;4995936;28;20045;-74
2022/04/15 07:30:19;;;;;;;30.45;23.45;;;;;;;7.89;97.64;102717.81;5006928;28;20021;-74
2022/04/15 07:32:44;;;;;;;32.17;23.05;;;;;;;7.92;97.89;102722.94;5009627;28;20042;-74
2022/04/15 07:35:10;;;;;;;32.40;21.88;;;;;;;7.97;97.33;102726.28;5008210;28;20820;-74
2022/04/15 07:37:37;;;;;;;30.83;22.65;;;;;;;7.99;97.54;102721.84;5009482;28;20022;-74
2022/04/15 07:40:05;;;;;;;32.75;23.05;;;;;;;7.98;97.24;102708.78;5009602;28;20025;-74
2022/04/15 07:42:31;;;;;;;32.75;22.85;;;;;;;8.05;97.30;102719.03;5007414;28;20483;-74
2022/04/15 07:44:56;;;;;;;28.50;20.98;;;;;;;8.09;97.11;102720.66;4994986;28;20125;-74
2022/04/15 07:47:23;;;;;;;28.60;21.42;;;;;;;8.11;97.06;102723.22;5009600;28;20026;-74
2022/04/15 07:49:50;;;;;;;32.72;22.80;;;;;;;8.15;97.38;102724.81;5008733;28;20026;-74
2022/04/15 07:52:15;;;;;;;26.80;21.67;;;;;;;8.20;97.30;102724.66;4992449;28;20075;-74
2022/04/15 07:54:44;;;;;;;30.15;23.00;;;;;;;8.21;96.98;102732.47;5006609;28;20025;-74
2022/04/15 07:57:17;;;;;;;34.35;22.48;;;;;;;8.25;96.62;102720.13;5008095;28;20116;-74
2022/04/15 07:59:44;;;;;;;33.75;23.58;;;;;;;8.26;96.82;102729.69;5008023;28;20058;-74
2022/04/15 08:02:09;;;;;;;31.92;22.30;;;;;;;8.28;96.02;102726.09;5007291;28;20317;-74
2022/04/15 08:04:36;;;;;;;33.65;22.25;;;;;;;8.31;96.09;102725.16;5007510;28;20117;-74
2022/04/15 08:07:02;;;;;;;31.67;21.52;;;;;;;8.37;96.05;102730.22;5005735;28;20084;-74
2022/04/15 08:09:27;;;;;;;28.70;19.75;;;;;;;8.39;95.99;102721.38;5006909;28;20033;-74
2022/04/15 08:11:54;;;;;;;25.50;19.40;;;;;;;8.41;95.61;102729.22;5007780;28;20037;-74
2022/04/15 08:14:19;;;;;;;28.90;20.05;;;;;;;8.43;95.25;102723.00;5007743;28;20037;-74
2022/04/15 08:16:45;;;;;;;24.27;18.50;;;;;;;8.46;94.55;102725.53;4995227;28;20021;-74
2022/04/15 08:19:10;;;;;;;28.30;18.10;;;;;;;8.50;94.46;102726.28;4980319;28;20521;-74
2022/04/15 08:21:36;;;;;;;30.42;20.67;;;;;;;8.53;94.72;102728.78;4993839;28;20025;-74
2022/04/15 08:24:12;;;;;;;29.52;21.63;;;;;;;8.59;94.69;102736.44;5010899;28;20033;-74
2022/04/15 08:26:39;;;;;;;33.83;22.27;;;;;;;8.61;94.02;102736.38;5011949;28;20121;-74
2022/04/15 08:29:05;;;;;;;31.48;21.88;;;;;;;8.64;94.03;102734.50;4993786;28;20026;-74
2022/04/15 08:31:30;;;;;;;30.63;21.58;;;;;;;8.67;94.50;102734.38;5011617;28;20025;-74
2022/04/15 08:33:55;;;;;;;32.47;20.90;;;;;;;8.71;93.74;102724.63;5011238;28;20104;-74
2022/04/15 08:36:20;;;;;;;26.55;19.85;;;;;;;8.74;92.90;102728.00;5011710;28;20026;-74
2022/04/15 08:38:46;;;;;;;25.42;18.75;;;;;;;8.76;93.02;102734.06;5010750;28;20033;-74
2022/04/15 08:41:14;;;;;;;23.33;17.42;;;;;;;8.79;92.46;102739.19;5010627;28;20026;-74
2022/04/15 08:43:42;;;;;;;24.05;17.42;;;;;;;8.82;92.39;102745.28;5012399;28;20104;-74
2022/04/15 08:46:08;;;;;;;20.30;15.82;;;;;;;8.85;91.88;102743.38;4992547;28;20041;-74
2022/04/15 08:48:37;;;;;;;20.98;15.25;;;;;;;8.88;90.95;102758.16;5012570;28;20494;-73
2022/04/15 08:51:07;;;;;;;20.05;13.15;;;;;;;8.87;88.90;102751.22;5011544;28;20482;-74
2022/04/15 08:53:34;;;;;;;17.15;13.05;;;;;;;8.97;89.66;102745.56;5011288;28;20044;-73
2022/04/15 08:56:00;;;;;;;17.63;13.52;;;;;;;9.03;89.72;102753.19;5011719;28;20917;-74
2022/04/15 08:58:28;;;;;;;16.98;13.10;;;;;;;9.10;89.03;102753.81;5010312;28;20045;-74
2022/04/15 09:00:54;;;;;;;15.95;13.30;;;;;;;9.15;88.30;102751.03;5011504;28;20375;-74
2022/04/15 09:03:19;;;;;;;16.48;13.23;;;;;;;9.24;88.42;102746.31;5011453;28;20085;-74
2022/04/15 09:05:49;;;;;;;15.23;12.15;;;;;;;9.32;89.00;102760.00;5007199;28;20109;-74
2022/04/15 09:08:15;;;;;;;19.73;13.00;;;;;;;9.36;87.06;102756.34;4993515;28;20073;-74
2022/04/15 09:10:44;;;;;;;16.48;12.02;;;;;;;9.41;85.87;102764.03;5007002;28;20131;-73
2022/04/15 09:13:20;;;;;;;17.00;12.57;;;;;;;9.48;86.10;102765.50;5009872;28;20105;-73
2022/04/15 09:15:46;;;;;;;16.98;12.77;;;;;;;9.57;86.43;102759.88;5005666;28;20030;-74
2022/04/15 09:18:27;;;;;;;18.73;13.48;;;;;;;9.67;86.72;102769.16;5010208;28;20394;-73
2022/04/15 09:20:52;;;;;;;15.38;13.43;;;;;;;9.77;86.65;102767.00;5009973;28;20081;-73
2022/04/15 09:23:19;;;;;;;14.75;12.00;;;;;;;9.84;85.10;102770.25;5011796;28;20029;-74
2022/04/15 09:25:46;;;;;;;17.35;12.00;;;;;;;9.94;85.09;102761.06;4976283;28;20046;-74
2022/04/15 09:28:13;;;;;;;15.40;12.10;;;;;;;10.05;84.27;102767.63;5010061;28;20032;-74
2022/04/15 09:30:42;;;;;;;14.73;12.30;;;;;;;10.12;83.77;102767.34;5010836;28;20029;-74
2022/04/15 09:33:10;;;;;;;16.35;12.05;;;;;;;10.22;84.05;102769.56;5010031;28;20373;-73
2022/04/15 09:35:36;;;;;;;13.52;11.45;;;;;;;10.29;83.60;102770.16;5010294;28;20025;-74
2022/04/15 09:38:04;;;;;;;15.50;12.18;;;;;;;10.38;83.42;102763.66;5010443;28;20030;-73
2022/04/15 09:40:35;;;;;;;14.85;11.25;;;;;;;10.57;82.15;102773.34;5010025;28;20061;-73
2022/04/15 09:43:06;;;;;;;12.48;11.18;;;;;;;10.63;79.37;102769.59;5010473;28;20527;-73
2022/04/15 09:45:37;;;;;;;14.10;10.85;;;;;;;10.88;80.93;102780.78;5008537;28;20026;-73
2022/04/15 09:48:11;;;;;;;15.80;11.07;;;;;;;11.03;78.59;102767.84;5009861;28;20028;-73
2022/04/15 09:50:44;;;;;;;12.30;10.82;;;;;;;11.19;78.84;102760.94;5010829;28;20032;-74
2022/04/15 09:53:14;;;;;;;15.32;10.80;;;;;;;11.42;79.96;102766.00;5010578;28;20029;-73
2022/04/15 09:55:46;;;;;;;12.57;10.38;;;;;;;11.55;78.61;102771.53;5007394;28;20486;-73
2022/04/15 09:58:23;;;;;;;12.70;10.77;;;;;;;11.72;78.28;102774.25;4983624;28;20042;-74
2022/04/15 10:00:53;;;;;;;12.90;9.88;;;;;;;11.81;75.67;102772.97;4968634;28;20023;-74
2022/04/15 10:03:24;;;;;;;12.07;10.50;;;;;;;11.78;73.47;102774.00;4970262;28;20054;-74
2022/04/15 10:05:50;;;;;;;11.65;9.60;;;;;;;11.86;73.90;102773.63;4970990;28;20042;-74
2022/04/15 10:08:20;;;;;;;12.95;9.23;;;;;;;11.95;74.18;102767.88;4970069;28;20376;-74
2022/04/15 10:10:46;;;;;;;11.82;9.30;;;;;;;12.05;72.96;102766.53;4970494;28;20031;-73
2022/04/15 10:13:13;;;;;;;10.82;9.02;;;;;;;12.20;73.89;102764.91;4969269;28;20026;-74
2022/04/15 10:15:45;;;;;;;12.35;9.98;;;;;;;12.32;73.96;102763.41;4970278;28;20031;-74
2022/04/15 10:18:11;;;;;;;12.05;9.93;;;;;;;12.46;72.79;102760.94;4968852;28;20018;-73
2022/04/15 10:20:38;;;;;;;10.35;8.50;;;;;;;12.60;71.51;102754.94;4970866;28;20054;-77
2022/04/15 10:23:09;;;;;;;11.75;8.30;;;;;;;12.72;71.63;102756.94;4968178;28;20027;-75
2022/04/15 10:25:36;;;;;;;12.68;7.97;;;;;;;12.83;70.17;102759.91;4968535;28;20050;-74
2022/04/15 10:28:04;;;;;;;10.52;8.15;;;;;;;12.93;68.85;102753.19;4970566;28;20023;-74
2022/04/15 10:30:30;;;;;;;9.98;7.93;;;;;;;12.96;69.94;102745.09;4970213;28;20482;-74
2022/04/15 10:32:59;;;;;;;8.40;7.60;;;;;;;13.04;67.37;102752.59;4970431;28;20026;-74
2022/04/15 10:35:29;;;;;;;12.25;8.00;;;;;;;13.05;67.28;102747.22;4969592;28;20054;-75
2022/04/15 10:38:02;;;;;;;8.75;7.32;;;;;;;13.27;68.41;102748.75;4962815;28;20070;-72
2022/04/15 10:40:33;;;;;;;9.75;8.10;;;;;;;13.42;69.10;102758.47;4964362;28;20030;-73
2022/04/15 10:43:23;;;;;;;10.65;8.05;;;;;;;13.56;67.83;102744.47;4961083;28;20022;-73
2022/04/15 10:45:54;;;;;;;10.38;7.32;;;;;;;13.64;67.18;102737.84;4963347;28;20030;-73
2022/04/15 10:48:30;;;;;;;9.30;7.03;;;;;;;13.84;69.06;102746.41;4969461;28;20097;-75
2022/04/15 10:50:56;;;;;;;8.82;7.53;;;;;;;14.07;67.09;102744.16;4968572;28;20033;-74
2022/04/15 10:53:23;;;;;;;8.73;7.82;;;;;;;14.09;64.32;102744.06;4970595;28;20102;-75
2022/04/15 10:55:49;;;;;;;7.85;7.05;;;;;;;14.33;65.57;102742.59;4970203;28;20022;-74
2022/04/15 10:58:16;;;;;;;9.85;7.72;;;;;;;14.34;63.72;102732.88;4979211;28;20050;-75
2022/04/15 11:03:31;;;;;;;9.55;7.85;;;;;;;14.79;64.47;102729.25;5009786;28;20060;-74
2022/04/15 11:06:04;;;;;;;8.10;7.22;;;;;;;14.90;63.75;102728.63;5005017;28;20114;-74
2022/04/15 11:08:44;;;;;;;6.68;6.07;;;;;;;15.11;64.92;102734.38;5009828;28;20030;-74
2022/04/15 11:11:09;;;;;;;8.98;6.88;;;;;;;15.31;62.78;102726.84;5009104;28;20116;-77
2022/04/15 11:13:39;;;;;;;6.93;6.22;;;;;;;15.47;62.14;102732.03;5008338;28;20060;-77
2022/04/15 11:16:06;;;;;;;7.70;6.97;;;;;;;15.61;61.41;102734.69;5006415;28;20037;-74
2022/04/15 11:18:55;;;;;;;7.78;6.97;;;;;;;15.56;60.96;102739.38;5008523;28;20030;-74
2022/04/15 11:21:37;;;;;;;7.25;6.10;;;;;;;15.65;62.09;102730.03;5008330;28;20061;-74